Time;durP1;ratioP1;P1;durP2;ratioP2;P2;SDS_P1;SDS_P2;PMS_P1;PMS_P2;Temp;Humidity;BMP_temperature;BMP_pressure;BME280_temperature;BME280_humidity;BME280_pressure;Samples;Min_cycle;Max_cycle;Signal;HPM_P1;HPM_P2
2023/12/23 00:00:27;;;;;;;0.10;0.10;;;;;;;;;;5077257;28;20029;-76
2023/12/23 00:02:53;;;;;;;0.03;0.03;;;;;;;;;;5060193;28;20036;-77
2023/12/23 00:05:19;;;;;;;0.10;0.10;;;;;;;;;;5064960;28;20029;-77
2023/12/23 00:07:45;;;;;;;0.10;0.10;;;;;;;;;;5059043;28;20052;-78
2023/12/23 00:10:11;;;;;;;0.10;0.10;;;;;;;;;;5061552;28;20029;-76
2023/12/23 00:12:37;;;;;;;0.35;0.10;;;;;;;;;;5054533;28;20017;-77
2023/12/23 00:15:04;;;;;;;0.30;0.17;;;;;;;;;;5056170;28;20092;-77
2023/12/23 00:17:30;;;;;;;0.10;0.10;;;;;;;;;;5054547;28;20025;-75
2023/12/23 00:19:56;;;;;;;0.20;0.10;;;;;;;;;;5045854;28;20083;-77
2023/12/23 00:22:22;;;;;;;0.17;0.10;;;;;;;;;;5069667;28;20103;-77
2023/12/23 00:24:48;;;;;;;0.40;0.20;;;;;;;;;;5053794;28;20021;-77
2023/12/23 00:27:14;;;;;;;0.10;0.10;;;;;;;;;;5052126;28;20017;-77
2023/12/23 00:29:41;;;;;;;0.10;0.10;;;;;;;;;;5053636;28;20079;-76
2023/12/23 00:32:07;;;;;;;0.25;0.10;;;;;;;;;;5053461;28;20029;-75
2023/12/23 00:34:33;;;;;;;0.00;0.00;;;;;;;;;;5053720;28;20028;-76
2023/12/23 00:37:00;;;;;;;0.10;0.10;;;;;;;;;;5052656;28;20021;-76
2023/12/23 00:39:26;;;;;;;0.10;0.10;;;;;;;;;;5051881;28;20078;-77
2023/12/23 00:41:52;;;;;;;0.08;0.08;;;;;;;;;;5052742;28;20431;-78
2023/12/23 00:44:18;;;;;;;0.75;0.20;;;;;;;;;;5054019;28;20047;-78
2023/12/23 00:46:45;;;;;;;0.05;0.00;;;;;;;;;;5053018;28;20075;-77
2023/12/23 00:49:11;;;;;;;0.10;0.10;;;;;;;;;;5050464;28;20013;-77
2023/12/23 00:51:37;;;;;;;0.20;0.20;;;;;;;;;;5048117;28;20021;-77
2023/12/23 00:54:03;;;;;;;0.10;0.10;;;;;;;;;;5053154;28;20017;-77
2023/12/23 00:56:29;;;;;;;0.03;0.03;;;;;;;;;;5052431;28;20070;-76
2023/12/23 00:58:55;;;;;;;0.20;0.20;;;;;;;;;;5051873;28;20101;-77
2023/12/23 01:01:21;;;;;;;0.10;0.10;;;;;;;;;;5053178;28;20593;-76
2023/12/23 01:03:48;;;;;;;0.10;0.10;;;;;;;;;;5053341;28;20029;-78
2023/12/23 01:06:14;;;;;;;1.10;0.30;;;;;;;;;;5052910;28;20022;-76
2023/12/23 01:08:40;;;;;;;0.10;0.10;;;;;;;;;;5053593;28;20026;-77
2023/12/23 01:11:06;;;;;;;0.20;0.10;;;;;;;;;;5053231;28;20515;-77
2023/12/23 01:13:32;;;;;;;0.20;0.20;;;;;;;;;;5053673;28;20033;-77
2023/12/23 01:15:58;;;;;;;0.10;0.10;;;;;;;;;;5052799;28;20021;-76
2023/12/23 01:18:24;;;;;;;0.10;0.10;;;;;;;;;;5052165;28;20020;-76
2023/12/23 01:20:50;;;;;;;0.05;0.05;;;;;;;;;;5060139;28;20029;-77
2023/12/23 01:23:17;;;;;;;0.28;0.20;;;;;;;;;;5056204;28;20026;-76
2023/12/23 01:25:43;;;;;;;0.10;0.10;;;;;;;;;;5047375;28;20120;-77
2023/12/23 01:28:09;;;;;;;0.10;0.10;;;;;;;;;;5060026;28;20029;-78
2023/12/23 01:30:35;;;;;;;0.00;0.00;;;;;;;;;;5053020;28;20025;-77
2023/12/23 01:33:01;;;;;;;0.10;0.10;;;;;;;;;;5051394;28;20122;-78
2023/12/23 01:35:27;;;;;;;0.10;0.10;;;;;;;;;;5052872;28;20013;-77
2023/12/23 01:37:53;;;;;;;0.00;0.00;;;;;;;;;;5051890;28;20103;-78
2023/12/23 01:40:20;;;;;;;0.20;0.15;;;;;;;;;;5051969;28;20028;-76
2023/12/23 01:42:46;;;;;;;0.30;0.10;;;;;;;;;;5056544;28;20053;-76
2023/12/23 01:45:12;;;;;;;0.15;0.10;;;;;;;;;;5071109;28;20025;-76
2023/12/23 01:47:42;;;;;;;0.00;0.00;;;;;;;;;;5061985;28;20468;-75
2023/12/23 01:50:09;;;;;;;0.10;0.10;;;;;;;;;;5054356;28;20075;-76
2023/12/23 01:52:38;;;;;;;0.17;0.17;;;;;;;;;;5056628;28;20063;-76
2023/12/23 01:55:07;;;;;;;0.15;0.10;;;;;;;;;;5055146;28;20480;-78
2023/12/23 01:57:33;;;;;;;0.20;0.20;;;;;;;;;;5052372;28;20027;-78
2023/12/23 02:00:00;;;;;;;0.25;0.10;;;;;;;;;;5052380;28;20538;-78
2023/12/23 02:02:28;;;;;;;0.43;0.10;;;;;;;;;;5052979;28;20066;-77
2023/12/23 02:04:54;;;;;;;0.65;0.10;;;;;;;;;;5052528;28;20045;-78
2023/12/23 02:07:20;;;;;;;0.10;0.10;;;;;;;;;;5052189;28;20480;-77
2023/12/23 02:09:46;;;;;;;0.08;0.08;;;;;;;;;;5056674;28;20047;-77
2023/12/23 02:12:19;;;;;;;0.20;0.10;;;;;;;;;;5055918;28;20021;-77
2023/12/23 02:14:56;;;;;;;0.20;0.10;;;;;;;;;;5056668;28;20021;-77
2023/12/23 02:17:22;;;;;;;0.30;0.08;;;;;;;;;;5048696;28;20032;-79
2023/12/23 02:19:48;;;;;;;0.10;0.10;;;;;;;;;;5056452;28;20021;-77
2023/12/23 02:22:14;;;;;;;0.00;0.00;;;;;;;;;;5056050;28;20021;-76
2023/12/23 02:24:40;;;;;;;0.10;0.10;;;;;;;;;;5056096;28;20021;-77
2023/12/23 02:27:11;;;;;;;0.00;0.00;;;;;;;;;;5056210;28;20100;-77
2023/12/23 02:29:38;;;;;;;0.10;0.10;;;;;;;;;;5055692;28;20318;-77
2023/12/23 02:32:05;;;;;;;0.45;0.10;;;;;;;;;;5054246;28;20040;-78
2023/12/23 02:34:31;;;;;;;0.10;0.10;;;;;;;;;;5056147;28;20028;-77
2023/12/23 02:36:57;;;;;;;0.17;0.10;;;;;;;;;;5055752;28;20028;-77
2023/12/23 02:39:23;;;;;;;1.55;0.00;;;;;;;;;;5055647;28;20029;-77
2023/12/23 02:41:49;;;;;;;0.28;0.10;;;;;;;;;;5055726;28;20033;-77
2023/12/23 02:44:15;;;;;;;0.10;0.10;;;;;;;;;;5055546;28;20488;-77
2023/12/23 02:46:42;;;;;;;0.00;0.00;;;;;;;;;;5054832;28;20358;-76
2023/12/23 02:49:08;;;;;;;0.10;0.10;;;;;;;;;;5046664;28;20100;-77
2023/12/23 02:51:34;;;;;;;0.22;0.10;;;;;;;;;;5055268;28;20104;-78
2023/12/23 02:54:00;;;;;;;0.43;0.10;;;;;;;;;;5055431;28;20021;-77
2023/12/23 02:56:26;;;;;;;0.40;0.20;;;;;;;;;;5055182;28;20021;-77
2023/12/23 02:58:53;;;;;;;0.10;0.08;;;;;;;;;;5054820;28;20063;-78
2023/12/23 03:01:20;;;;;;;0.20;0.20;;;;;;;;;;5055307;28;20017;-77
2023/12/23 03:03:46;;;;;;;0.10;0.10;;;;;;;;;;5055230;28;20545;-78
2023/12/23 03:06:14;;;;;;;0.10;0.10;;;;;;;;;;5054726;28;20395;-78
2023/12/23 03:08:40;;;;;;;0.15;0.10;;;;;;;;;;5055409;28;20067;-76
2023/12/23 03:11:06;;;;;;;0.80;0.20;;;;;;;;;;5054682;28;20241;-76
2023/12/23 03:13:32;;;;;;;0.00;0.00;;;;;;;;;;5054647;28;20020;-77
2023/12/23 03:15:58;;;;;;;0.20;0.17;;;;;;;;;;5054913;28;20384;-76
2023/12/23 03:18:24;;;;;;;0.43;0.10;;;;;;;;;;5055068;28;20013;-77
2023/12/23 03:20:50;;;;;;;0.52;0.10;;;;;;;;;;5053233;28;20484;-79
2023/12/23 03:23:17;;;;;;;0.10;0.10;;;;;;;;;;5047222;28;20021;-76
2023/12/23 03:25:43;;;;;;;0.00;0.00;;;;;;;;;;5055421;28;20041;-77
2023/12/23 03:28:09;;;;;;;1.55;0.00;;;;;;;;;;5068494;28;20021;-77
2023/12/23 03:30:35;;;;;;;0.20;0.10;;;;;;;;;;5067670;28;20349;-76
2023/12/23 03:33:02;;;;;;;0.00;0.00;;;;;;;;;;5056340;28;20496;-77
2023/12/23 03:35:28;;;;;;;0.10;0.10;;;;;;;;;;5054850;28;20472;-77
2023/12/23 03:37:54;;;;;;;0.13;0.00;;;;;;;;;;5054897;28;20020;-77
2023/12/23 03:40:20;;;;;;;0.00;0.00;;;;;;;;;;5054930;28;20028;-76
2023/12/23 03:42:46;;;;;;;0.05;0.05;;;;;;;;;;5056057;28;20032;-77
2023/12/23 03:45:12;;;;;;;0.10;0.10;;;;;;;;;;5054966;28;20028;-76
2023/12/23 03:47:40;;;;;;;0.00;0.00;;;;;;;;;;5048400;28;20018;-77
2023/12/23 03:50:07;;;;;;;0.00;0.00;;;;;;;;;;5054416;28;20069;-77
2023/12/23 03:52:33;;;;;;;0.65;0.05;;;;;;;;;;5056284;28;20021;-77
2023/12/23 03:54:59;;;;;;;0.00;0.00;;;;;;;;;;5053659;28;20029;-78
2023/12/23 03:57:25;;;;;;;0.00;0.00;;;;;;;;;;5054585;28;20024;-78
2023/12/23 03:59:51;;;;;;;0.38;0.00;;;;;;;;;;5054946;28;20045;-78
2023/12/23 04:02:17;;;;;;;0.00;0.00;;;;;;;;;;5046754;28;20025;-78
2023/12/23 04:04:43;;;;;;;0.00;0.00;;;;;;;;;;5055730;28;20018;-77
2023/12/23 04:07:09;;;;;;;0.00;0.00;;;;;;;;;;5055943;28;20029;-77
2023/12/23 04:09:36;;;;;;;0.10;0.10;;;;;;;;;;5056909;28;20086;-77
2023/12/23 04:12:02;;;;;;;0.10;0.10;;;;;;;;;;5054583;28;20032;-77
2023/12/23 04:14:28;;;;;;;0.20;0.00;;;;;;;;;;5053306;28;20025;-77
2023/12/23 04:16:54;;;;;;;0.22;0.05;;;;;;;;;;5057047;28;20088;-78
2023/12/23 04:19:20;;;;;;;0.10;0.10;;;;;;;;;;5064003;28;20576;-76
2023/12/23 04:21:46;;;;;;;0.00;0.00;;;;;;;;;;5055161;28;20472;-76
2023/12/23 04:24:13;;;;;;;0.10;0.10;;;;;;;;;;5054685;28;20028;-75
2023/12/23 04:26:39;;;;;;;0.20;0.10;;;;;;;;;;5053621;28;20029;-76
2023/12/23 04:29:05;;;;;;;0.10;0.10;;;;;;;;;;5050823;28;20026;-77
2023/12/23 04:31:31;;;;;;;0.20;0.03;;;;;;;;;;5047557;28;20035;-77
2023/12/23 04:33:57;;;;;;;0.10;0.10;;;;;;;;;;5053332;28;20024;-77
2023/12/23 04:36:23;;;;;;;0.35;0.10;;;;;;;;;;5053768;28;20032;-77
2023/12/23 04:38:50;;;;;;;0.10;0.08;;;;;;;;;;5053949;28;20384;-77
2023/12/23 04:41:16;;;;;;;0.10;0.00;;;;;;;;;;5053745;28;20025;-77
2023/12/23 04:43:42;;;;;;;0.10;0.10;;;;;;;;;;5056955;28;20130;-77
2023/12/23 04:46:08;;;;;;;0.00;0.00;;;;;;;;;;5056850;28;20024;-75
2023/12/23 04:48:34;;;;;;;0.22;0.05;;;;;;;;;;5049001;28;20026;-76
2023/12/23 04:51:00;;;;;;;0.55;0.10;;;;;;;;;;5052246;28;20484;-78
2023/12/23 04:53:27;;;;;;;0.00;0.00;;;;;;;;;;5053934;28;20028;-77
2023/12/23 04:55:53;;;;;;;0.28;0.00;;;;;;;;;;5053373;28;20023;-78
2023/12/23 04:58:19;;;;;;;0.10;0.00;;;;;;;;;;5043798;28;20021;-76
2023/12/23 05:00:47;;;;;;;0.05;0.05;;;;;;;;;;5053149;28;20039;-77
2023/12/23 05:03:13;;;;;;;0.00;0.00;;;;;;;;;;5053643;28;20463;-77
2023/12/23 05:05:41;;;;;;;0.00;0.00;;;;;;;;;;5053328;28;20021;-77
2023/12/23 05:08:07;;;;;;;0.20;0.10;;;;;;;;;;5053558;28;20025;-76
2023/12/23 05:10:33;;;;;;;0.00;0.00;;;;;;;;;;5052534;28;20100;-76
2023/12/23 05:13:00;;;;;;;0.13;0.10;;;;;;;;;;5053139;28;20013;-77
2023/12/23 05:15:26;;;;;;;0.35;0.00;;;;;;;;;;5052631;28;20086;-78
2023/12/23 05:17:52;;;;;;;0.00;0.00;;;;;;;;;;5052821;28;20044;-77
2023/12/23 05:20:18;;;;;;;0.15;0.15;;;;;;;;;;5044444;28;20044;-77
2023/12/23 05:22:44;;;;;;;0.10;0.10;;;;;;;;;;5052980;28;20040;-77
2023/12/23 05:25:10;;;;;;;0.00;0.00;;;;;;;;;;5053712;28;20499;-77
2023/12/23 05:27:36;;;;;;;0.40;0.08;;;;;;;;;;5071506;28;20032;-78
2023/12/23 05:30:02;;;;;;;0.22;0.03;;;;;;;;;;5074536;28;20033;-77
2023/12/23 05:32:29;;;;;;;0.05;0.05;;;;;;;;;;5055523;28;20017;-77
2023/12/23 05:34:55;;;;;;;0.10;0.10;;;;;;;;;;5054314;28;20262;-79
2023/12/23 05:37:21;;;;;;;0.00;0.00;;;;;;;;;;5059536;28;20188;-76
2023/12/23 05:39:48;;;;;;;0.10;0.10;;;;;;;;;;5052251;28;20029;-77
2023/12/23 05:42:14;;;;;;;0.20;0.10;;;;;;;;;;5054782;28;20021;-77
2023/12/23 05:44:41;;;;;;;0.13;0.13;;;;;;;;;;5054604;28;20022;-77
2023/12/23 05:47:07;;;;;;;0.47;0.10;;;;;;;;;;5050719;28;20159;-77
2023/12/23 05:49:33;;;;;;;0.00;0.00;;;;;;;;;;5047432;28;20416;-78
2023/12/23 05:51:59;;;;;;;0.10;0.10;;;;;;;;;;5049592;28;20037;-78
2023/12/23 05:54:25;;;;;;;0.10;0.10;;;;;;;;;;5061772;28;20035;-77
2023/12/23 05:56:52;;;;;;;0.13;0.10;;;;;;;;;;5063139;28;20028;-78
2023/12/23 05:59:18;;;;;;;0.00;0.00;;;;;;;;;;5062423;28;20040;-77
2023/12/23 06:01:44;;;;;;;0.10;0.10;;;;;;;;;;5062098;28;20064;-78
2023/12/23 06:04:10;;;;;;;0.10;0.10;;;;;;;;;;5060084;28;20426;-76
2023/12/23 06:06:36;;;;;;;0.10;0.10;;;;;;;;;;5060278;28;20075;-76
2023/12/23 06:09:03;;;;;;;0.70;0.10;;;;;;;;;;5050870;28;20514;-76
2023/12/23 06:11:29;;;;;;;0.10;0.10;;;;;;;;;;5053779;28;20025;-76
2023/12/23 06:13:55;;;;;;;0.00;0.00;;;;;;;;;;5053077;28;20044;-78
2023/12/23 06:16:21;;;;;;;0.10;0.10;;;;;;;;;;5042296;28;20028;-77
2023/12/23 06:18:48;;;;;;;0.32;0.10;;;;;;;;;;5047764;28;20017;-78
2023/12/23 06:21:14;;;;;;;0.10;0.10;;;;;;;;;;5052425;28;20403;-77
2023/12/23 06:23:40;;;;;;;0.65;0.10;;;;;;;;;;5053032;28;20037;-76
2023/12/23 06:26:06;;;;;;;0.43;0.30;;;;;;;;;;5052893;28;20049;-77
2023/12/23 06:28:32;;;;;;;0.10;0.10;;;;;;;;;;5052663;28;20438;-78
2023/12/23 06:30:58;;;;;;;1.65;0.10;;;;;;;;;;5051053;28;20079;-76
2023/12/23 06:33:24;;;;;;;2.08;0.17;;;;;;;;;;5052792;28;20009;-77
2023/12/23 06:35:51;;;;;;;0.17;0.17;;;;;;;;;;5068817;28;20537;-77
2023/12/23 06:38:18;;;;;;;0.10;0.10;;;;;;;;;;5052138;28;20033;-78
2023/12/23 06:40:44;;;;;;;1.02;0.00;;;;;;;;;;5053019;28;20071;-77
2023/12/23 06:43:10;;;;;;;0.32;0.20;;;;;;;;;;5053101;28;20488;-77
2023/12/23 06:45:36;;;;;;;0.30;0.10;;;;;;;;;;5052449;28;20385;-77
2023/12/23 06:48:03;;;;;;;0.03;0.03;;;;;;;;;;5052121;28;20392;-78
2023/12/23 06:50:29;;;;;;;0.20;0.20;;;;;;;;;;5043993;28;20438;-76
2023/12/23 06:52:55;;;;;;;0.47;0.20;;;;;;;;;;5052894;28;20075;-76
2023/12/23 06:55:21;;;;;;;0.17;0.17;;;;;;;;;;5052815;28;20096;-77
2023/12/23 06:57:48;;;;;;;0.20;0.20;;;;;;;;;;5055318;28;20025;-77
2023/12/23 07:00:15;;;;;;;0.10;0.10;;;;;;;;;;5055364;28;20063;-77
2023/12/23 07:02:41;;;;;;;1.65;0.28;;;;;;;;;;5055360;28;20376;-78
2023/12/23 07:05:07;;;;;;;0.30;0.30;;;;;;;;;;5055245;28;20029;-76
2023/12/23 07:07:33;;;;;;;1.45;0.30;;;;;;;;;;5055830;28;20464;-76
2023/12/23 07:09:59;;;;;;;2.60;0.22;;;;;;;;;;5055705;28;20425;-77
2023/12/23 07:12:26;;;;;;;0.90;0.10;;;;;;;;;;5056595;28;20013;-77
2023/12/23 07:14:52;;;;;;;0.10;0.10;;;;;;;;;;5056038;28;20028;-76
2023/12/23 07:17:18;;;;;;;0.30;0.30;;;;;;;;;;5052536;28;20040;-78
2023/12/23 07:19:44;;;;;;;1.95;0.20;;;;;;;;;;5046328;28;20024;-77
2023/12/23 07:22:10;;;;;;;0.20;0.20;;;;;;;;;;5056795;28;20021;-78
2023/12/23 07:24:39;;;;;;;0.65;0.28;;;;;;;;;;5056805;28;20507;-77
2023/12/23 07:27:05;;;;;;;0.40;0.20;;;;;;;;;;5057198;28;20033;-78
2023/12/23 07:29:31;;;;;;;0.20;0.20;;;;;;;;;;5075203;28;20040;-76
2023/12/23 07:31:57;;;;;;;0.38;0.20;;;;;;;;;;5059030;28;20052;-76
2023/12/23 07:34:23;;;;;;;0.17;0.17;;;;;;;;;;5043718;28;20014;-77
2023/12/23 07:36:49;;;;;;;0.20;0.20;;;;;;;;;;5048756;28;20017;-76
2023/12/23 07:39:17;;;;;;;0.22;0.22;;;;;;;;;;5055075;28;20025;-78
2023/12/23 07:41:43;;;;;;;0.30;0.30;;;;;;;;;;5054167;28;20017;-77
2023/12/23 07:44:09;;;;;;;0.52;0.30;;;;;;;;;;5056637;28;20017;-79
2023/12/23 07:46:35;;;;;;;0.32;0.30;;;;;;;;;;5056720;28;20083;-76
2023/12/23 07:49:03;;;;;;;0.30;0.28;;;;;;;;;;5056537;28;20075;-77
2023/12/23 07:51:29;;;;;;;2.05;0.30;;;;;;;;;;5050201;28;20048;-76
2023/12/23 07:53:55;;;;;;;0.52;0.20;;;;;;;;;;5056992;28;20028;-77
2023/12/23 07:56:22;;;;;;;1.75;0.35;;;;;;;;;;5056115;28;20017;-78
2023/12/23 07:58:48;;;;;;;0.13;0.13;;;;;;;;;;5059480;28;20108;-79
2023/12/23 08:01:15;;;;;;;0.43;0.30;;;;;;;;;;5058031;28;20049;-78
2023/12/23 08:03:41;;;;;;;0.40;0.40;;;;;;;;;;5057828;28;20139;-75
2023/12/23 08:06:07;;;;;;;0.68;0.20;;;;;;;;;;5058962;28;20101;-78
2023/12/23 08:08:33;;;;;;;0.85;0.20;;;;;;;;;;5059150;28;20170;-77
2023/12/23 08:10:59;;;;;;;0.73;0.32;;;;;;;;;;5059746;28;20021;-78
2023/12/23 08:13:27;;;;;;;0.10;0.10;;;;;;;;;;5056120;28;20039;-77
2023/12/23 08:15:53;;;;;;;0.20;0.20;;;;;;;;;;5059147;28;20013;-77
2023/12/23 08:18:20;;;;;;;0.20;0.20;;;;;;;;;;5058517;28;20025;-77
2023/12/23 08:20:46;;;;;;;0.20;0.20;;;;;;;;;;5074435;28;20024;-77
2023/12/23 08:23:12;;;;;;;0.20;0.10;;;;;;;;;;5061231;28;20036;-78
2023/12/23 08:25:38;;;;;;;0.10;0.10;;;;;;;;;;5061893;28;20028;-76
2023/12/23 08:28:05;;;;;;;0.10;0.10;;;;;;;;;;5059658;28;20028;-77
2023/12/23 08:30:31;;;;;;;0.88;0.30;;;;;;;;;;5059989;28;20032;-77
2023/12/23 08:32:57;;;;;;;1.17;0.30;;;;;;;;;;5061392;28;20112;-77
2023/12/23 08:35:24;;;;;;;0.32;0.32;;;;;;;;;;5062662;28;20402;-78
2023/12/23 08:37:51;;;;;;;0.35;0.35;;;;;;;;;;5068105;28;20017;-77
2023/12/23 08:40:17;;;;;;;0.25;0.10;;;;;;;;;;5066528;28;20045;-77
2023/12/23 08:42:44;;;;;;;0.20;0.20;;;;;;;;;;5057788;28;20055;-77
2023/12/23 08:45:10;;;;;;;0.22;0.20;;;;;;;;;;5081916;28;20028;-77
2023/12/23 08:47:37;;;;;;;0.47;0.20;;;;;;;;;;5066986;28;20018;-77
2023/12/23 08:50:03;;;;;;;0.10;0.10;;;;;;;;;;5071033;28;20036;-78
2023/12/23 08:52:29;;;;;;;0.20;0.20;;;;;;;;;;5063121;28;20021;-77
2023/12/23 08:54:55;;;;;;;0.68;0.47;;;;;;;;;;5068281;28;20013;-77
2023/12/23 08:57:21;;;;;;;0.17;0.17;;;;;;;;;;5073601;28;20033;-79
2023/12/23 08:59:47;;;;;;;0.20;0.20;;;;;;;;;;5076915;28;20043;-78
2023/12/23 09:02:14;;;;;;;0.10;0.10;;;;;;;;;;5092498;28;20024;-79
2023/12/23 09:04:40;;;;;;;1.20;0.13;;;;;;;;;;5076407;28;20006;-79
2023/12/23 09:07:08;;;;;;;0.55;0.28;;;;;;;;;;5076209;28;20073;-78
2023/12/23 09:09:34;;;;;;;0.77;0.30;;;;;;;;;;5076426;28;20004;-77
2023/12/23 09:12:00;;;;;;;0.30;0.30;;;;;;;;;;5076077;28;20043;-79
2023/12/23 09:14:26;;;;;;;0.10;0.10;;;;;;;;;;5067497;28;20020;-78
2023/12/23 09:16:52;;;;;;;0.28;0.20;;;;;;;;;;5069005;28;20025;-77
2023/12/23 09:19:18;;;;;;;0.80;0.20;;;;;;;;;;5069383;28;20110;-75
2023/12/23 09:21:45;;;;;;;0.10;0.10;;;;;;;;;;5071898;28;20084;-76
2023/12/23 09:24:11;;;;;;;0.10;0.10;;;;;;;;;;5067269;28;20558;-76
2023/12/23 09:26:37;;;;;;;0.05;0.05;;;;;;;;;;5071840;28;20025;-79
2023/12/23 09:29:03;;;;;;;0.20;0.10;;;;;;;;;;5073050;28;20040;-78
2023/12/23 09:31:30;;;;;;;0.22;0.20;;;;;;;;;;5074665;28;20035;-78
2023/12/23 09:33:56;;;;;;;0.20;0.13;;;;;;;;;;5071675;28;20059;-78
2023/12/23 09:36:23;;;;;;;0.40;0.20;;;;;;;;;;5074989;28;20018;-77
2023/12/23 09:38:49;;;;;;;0.30;0.28;;;;;;;;;;5070460;28;20025;-77
2023/12/23 09:41:15;;;;;;;0.68;0.20;;;;;;;;;;5068388;28;20027;-78
2023/12/23 09:43:42;;;;;;;0.05;0.05;;;;;;;;;;5083843;28;20032;-76
2023/12/23 09:46:08;;;;;;;0.20;0.20;;;;;;;;;;5065249;28;20435;-77
2023/12/23 09:48:35;;;;;;;0.10;0.10;;;;;;;;;;5064274;28;20033;-77
2023/12/23 09:51:01;;;;;;;1.20;0.10;;;;;;;;;;5065595;28;20079;-78
2023/12/23 09:53:27;;;;;;;0.10;0.10;;;;;;;;;;5063526;28;20031;-77
2023/12/23 09:55:53;;;;;;;0.35;0.17;;;;;;;;;;5071706;28;20031;-77
2023/12/23 09:58:19;;;;;;;0.10;0.10;;;;;;;;;;5070837;28;20053;-77
2023/12/23 10:00:46;;;;;;;1.05;0.20;;;;;;;;;;5061958;28;20281;-76
2023/12/23 10:03:12;;;;;;;0.10;0.10;;;;;;;;;;5069372;28;20017;-78
2023/12/23 10:05:42;;;;;;;0.30;0.10;;;;;;;;;;5073528;28;20044;-78
2023/12/23 10:08:08;;;;;;;0.20;0.10;;;;;;;;;;5074127;28;20041;-78
2023/12/23 10:10:34;;;;;;;0.10;0.10;;;;;;;;;;5075400;28;20017;-77
2023/12/23 10:13:01;;;;;;;0.00;0.00;;;;;;;;;;5075181;28;20013;-78
2023/12/23 10:15:29;;;;;;;0.30;0.20;;;;;;;;;;5073080;28;20028;-78
2023/12/23 10:17:55;;;;;;;0.40;0.30;;;;;;;;;;5073835;28;20009;-80
2023/12/23 10:20:22;;;;;;;1.20;0.20;;;;;;;;;;5066770;28;20921;-78
2023/12/23 10:22:48;;;;;;;0.40;0.17;;;;;;;;;;5074717;28;20029;-78
2023/12/23 10:25:15;;;;;;;0.20;0.15;;;;;;;;;;5076117;28;20060;-79
2023/12/23 10:27:42;;;;;;;2.92;0.10;;;;;;;;;;5075448;28;20031;-78
2023/12/23 10:30:09;;;;;;;0.95;0.15;;;;;;;;;;5075557;28;20036;-77
2023/12/23 10:32:36;;;;;;;0.75;0.10;;;;;;;;;;5077517;28;20027;-77
2023/12/23 10:35:03;;;;;;;0.40;0.30;;;;;;;;;;5076065;28;20021;-78
2023/12/23 10:37:30;;;;;;;0.50;0.22;;;;;;;;;;5069381;28;20073;-79
2023/12/23 10:40:02;;;;;;;0.50;0.25;;;;;;;;;;5079022;28;20017;-79
2023/12/23 10:42:30;;;;;;;1.38;0.30;;;;;;;;;;5077438;28;20016;-75
2023/12/23 10:44:57;;;;;;;0.30;0.20;;;;;;;;;;5067758;28;20013;-76
2023/12/23 10:47:24;;;;;;;0.10;0.10;;;;;;;;;;5069099;28;20021;-77
2023/12/23 10:49:50;;;;;;;0.40;0.20;;;;;;;;;;5072832;28;20067;-77
2023/12/23 10:52:16;;;;;;;0.10;0.10;;;;;;;;;;5074951;28;20484;-78
2023/12/23 10:54:43;;;;;;;0.10;0.10;;;;;;;;;;5076198;28;20063;-77
2023/12/23 10:57:10;;;;;;;0.57;0.40;;;;;;;;;;5075424;28;20044;-77
2023/12/23 10:59:36;;;;;;;0.57;0.10;;;;;;;;;;5077602;28;20036;-76
2023/12/23 11:02:15;;;;;;;0.08;0.00;;;;;;;;;;5072476;28;20048;-77
2023/12/23 11:04:47;;;;;;;0.90;0.25;;;;;;;;;;5073231;28;20017;-77
2023/12/23 11:07:15;;;;;;;0.20;0.20;;;;;;;;;;5076399;28;20255;-78
2023/12/23 11:09:42;;;;;;;1.55;0.20;;;;;;;;;;5064348;28;20497;-76
2023/12/23 11:12:08;;;;;;;0.13;0.13;;;;;;;;;;5062289;28;20029;-77
2023/12/23 11:14:36;;;;;;;0.73;0.30;;;;;;;;;;5065138;28;20018;-76
2023/12/23 11:17:02;;;;;;;0.20;0.20;;;;;;;;;;5069464;28;20041;-78
2023/12/23 11:19:28;;;;;;;0.10;0.10;;;;;;;;;;5058449;28;20055;-75
2023/12/23 11:22:13;;;;;;;0.17;0.17;;;;;;;;;;5067238;28;20020;-76
2023/12/23 11:24:39;;;;;;;0.40;0.20;;;;;;;;;;5061126;28;20021;-77
2023/12/23 11:27:05;;;;;;;0.13;0.10;;;;;;;;;;5068666;28;20108;-77
2023/12/23 11:29:35;;;;;;;0.47;0.30;;;;;;;;;;5070511;28;20027;-76
2023/12/23 11:32:13;;;;;;;0.40;0.20;;;;;;;;;;5074899;28;20079;-77
2023/12/23 11:34:41;;;;;;;0.55;0.20;;;;;;;;;;5059745;28;20017;-76
2023/12/23 11:37:07;;;;;;;0.20;0.13;;;;;;;;;;5072493;28;20489;-79
2023/12/23 11:39:33;;;;;;;0.50;0.20;;;;;;;;;;5065776;28;20025;-77
2023/12/23 11:41:59;;;;;;;0.20;0.20;;;;;;;;;;5065821;28;20047;-78
2023/12/23 11:44:26;;;;;;;0.60;0.22;;;;;;;;;;5067011;28;20033;-76
2023/12/23 11:46:54;;;;;;;0.40;0.30;;;;;;;;;;5059296;28;20032;-76
2023/12/23 11:49:20;;;;;;;0.30;0.25;;;;;;;;;;5055530;28;20031;-75
2023/12/23 11:51:46;;;;;;;0.25;0.22;;;;;;;;;;5043509;28;20021;-77
2023/12/23 11:54:12;;;;;;;0.20;0.20;;;;;;;;;;5062968;28;20029;-77
2023/12/23 11:56:38;;;;;;;5.15;0.20;;;;;;;;;;5064289;28;20029;-77
2023/12/23 11:59:06;;;;;;;0.40;0.40;;;;;;;;;;5065638;28;20063;-77
2023/12/23 12:01:35;;;;;;;1.48;0.75;;;;;;;;;;5067355;28;20067;-76
2023/12/23 12:04:01;;;;;;;0.30;0.30;;;;;;;;;;5064397;28;20086;-77
2023/12/23 12:06:28;;;;;;;0.17;0.17;;;;;;;;;;5065137;28;20052;-77
2023/12/23 12:08:55;;;;;;;0.30;0.30;;;;;;;;;;5066508;28;20123;-77
2023/12/23 12:11:24;;;;;;;0.40;0.25;;;;;;;;;;5068248;28;20052;-77
2023/12/23 12:13:50;;;;;;;1.60;0.35;;;;;;;;;;5074049;28;20057;-78
2023/12/23 12:16:18;;;;;;;0.45;0.20;;;;;;;;;;5081321;28;20020;-77
2023/12/23 12:18:46;;;;;;;0.43;0.28;;;;;;;;;;5089220;28;20032;-78
2023/12/23 12:21:12;;;;;;;0.10;0.10;;;;;;;;;;5067711;28;20040;-76
2023/12/23 12:23:38;;;;;;;1.80;0.50;;;;;;;;;;5067872;28;20080;-76
2023/12/23 12:26:04;;;;;;;0.10;0.10;;;;;;;;;;5069952;28;20029;-75
2023/12/23 12:28:31;;;;;;;0.47;0.32;;;;;;;;;;5062341;28;20051;-76
2023/12/23 12:31:17;;;;;;;0.70;0.30;;;;;;;;;;5069050;28;20028;-77
2023/12/23 12:33:43;;;;;;;0.43;0.20;;;;;;;;;;5069780;28;20025;-78
2023/12/23 12:36:14;;;;;;;0.20;0.10;;;;;;;;;;5061742;28;20047;-78
2023/12/23 12:38:43;;;;;;;0.90;0.50;;;;;;;;;;5060730;28;20025;-77
2023/12/23 12:41:10;;;;;;;0.38;0.28;;;;;;;;;;5058929;28;20025;-76
2023/12/23 12:43:44;;;;;;;0.55;0.32;;;;;;;;;;5060412;28;20021;-76
2023/12/23 12:46:11;;;;;;;1.33;0.70;;;;;;;;;;5057904;28;20100;-78
2023/12/23 12:48:37;;;;;;;0.43;0.30;;;;;;;;;;5055794;28;20021;-77
2023/12/23 12:51:05;;;;;;;0.22;0.20;;;;;;;;;;5055120;28;20073;-77
2023/12/23 12:53:31;;;;;;;0.50;0.50;;;;;;;;;;5044958;28;20376;-77
2023/12/23 12:56:20;;;;;;;1.27;0.40;;;;;;;;;;5053068;28;20494;-76
2023/12/23 12:58:46;;;;;;;0.35;0.35;;;;;;;;;;5047987;28;20036;-76
2023/12/23 13:01:12;;;;;;;2.75;0.50;;;;;;;;;;5053813;28;20452;-77
2023/12/23 13:03:38;;;;;;;0.80;0.10;;;;;;;;;;5053125;28;20032;-77
2023/12/23 13:06:05;;;;;;;1.35;0.28;;;;;;;;;;5059764;28;20092;-77
2023/12/23 13:08:31;;;;;;;0.20;0.20;;;;;;;;;;5042970;28;20048;-77
2023/12/23 13:10:58;;;;;;;0.30;0.25;;;;;;;;;;5052717;28;20019;-78
2023/12/23 13:13:24;;;;;;;0.73;0.50;;;;;;;;;;5052401;28;20021;-77
2023/12/23 13:15:53;;;;;;;0.90;0.40;;;;;;;;;;5052811;28;20024;-78
2023/12/23 13:18:19;;;;;;;0.45;0.10;;;;;;;;;;5066642;28;20119;-76
2023/12/23 13:20:46;;;;;;;0.30;0.30;;;;;;;;;;5046673;28;20036;-77
2023/12/23 13:23:12;;;;;;;0.20;0.20;;;;;;;;;;5052854;28;20108;-78
2023/12/23 13:25:38;;;;;;;2.13;0.30;;;;;;;;;;5056567;28;20108;-77
2023/12/23 13:28:04;;;;;;;2.47;0.38;;;;;;;;;;5061395;28;20029;-78
2023/12/23 13:30:35;;;;;;;0.10;0.10;;;;;;;;;;5062108;28;20025;-78
2023/12/23 13:33:01;;;;;;;0.40;0.40;;;;;;;;;;5054683;28;20097;-78
2023/12/23 13:35:27;;;;;;;0.35;0.20;;;;;;;;;;5053175;28;20041;-76
2023/12/23 13:37:56;;;;;;;1.35;0.40;;;;;;;;;;5054192;28;20025;-76
2023/12/23 13:40:23;;;;;;;1.55;0.40;;;;;;;;;;5052614;28;20040;-76
2023/12/23 13:42:49;;;;;;;0.90;0.40;;;;;;;;;;5062260;28;20057;-76
2023/12/23 13:45:15;;;;;;;0.32;0.30;;;;;;;;;;5049461;28;20356;-77
2023/12/23 13:47:42;;;;;;;0.17;0.17;;;;;;;;;;5049018;28;20077;-77
2023/12/23 13:50:08;;;;;;;0.50;0.30;;;;;;;;;;5050927;28;20087;-77
2023/12/23 13:52:34;;;;;;;0.30;0.30;;;;;;;;;;5052306;28;20451;-77
2023/12/23 13:55:04;;;;;;;1.85;0.20;;;;;;;;;;5055025;28;20025;-77
2023/12/23 13:57:30;;;;;;;0.77;0.32;;;;;;;;;;5052623;28;20027;-76
2023/12/23 13:59:57;;;;;;;1.02;0.60;;;;;;;;;;5053026;28;20035;-77
2023/12/23 14:02:23;;;;;;;0.50;0.38;;;;;;;;;;5068078;28;20393;-78
2023/12/23 14:04:49;;;;;;;0.38;0.20;;;;;;;;;;5052185;28;20044;-78
2023/12/23 14:07:15;;;;;;;0.60;0.20;;;;;;;;;;5056480;28;20029;-78
2023/12/23 14:09:42;;;;;;;0.55;0.20;;;;;;;;;;5057011;28;20025;-77
2023/12/23 14:12:08;;;;;;;0.40;0.30;;;;;;;;;;5048328;28;20020;-76
2023/12/23 14:14:35;;;;;;;0.17;0.17;;;;;;;;;;5057461;28;20025;-78
2023/12/23 14:17:01;;;;;;;0.30;0.25;;;;;;;;;;5052296;28;20022;-76
2023/12/23 14:19:27;;;;;;;0.60;0.30;;;;;;;;;;5055758;28;20036;-78
2023/12/23 14:21:54;;;;;;;0.82;0.30;;;;;;;;;;5056369;28;20021;-78
2023/12/23 14:24:20;;;;;;;0.20;0.20;;;;;;;;;;5056631;28;20033;-77
2023/12/23 14:26:46;;;;;;;0.22;0.20;;;;;;;;;;5062766;28;20549;-76
2023/12/23 14:29:12;;;;;;;0.90;0.40;;;;;;;;;;5055906;28;20033;-77
2023/12/23 14:31:39;;;;;;;0.82;0.50;;;;;;;;;;5056672;28;20048;-77
2023/12/23 14:34:06;;;;;;;0.25;0.22;;;;;;;;;;5056298;28;20021;-77
2023/12/23 14:36:32;;;;;;;0.35;0.10;;;;;;;;;;5056830;28;20463;-78
2023/12/23 14:39:02;;;;;;;0.45;0.10;;;;;;;;;;5056117;28;20029;-78